createdAt,value
2023-02-23T00:01:52.682Z,64.32
2023-02-23T00:04:19.196Z,63.60
2023-02-23T00:06:45.819Z,68.40
2023-02-23T00:09:23.178Z,69.18
2023-02-23T00:11:57.330Z,65.35
2023-02-23T00:14:28.741Z,67.90
2023-02-23T00:16:56.576Z,64.63
2023-02-23T00:19:24.801Z,69.28
2023-02-23T00:21:52.241Z,68.75
2023-02-23T00:24:19.810Z,68.32
2023-02-23T00:26:47.874Z,70.50
2023-02-23T00:29:17.250Z,68.82
2023-02-23T00:31:44.887Z,69.60
2023-02-23T00:34:13.016Z,73.10
2023-02-23T00:36:39.854Z,71.65
2023-02-23T00:39:24.857Z,73.45
2023-02-23T00:41:55.227Z,69.25
2023-02-23T00:44:23.537Z,66.70
2023-02-23T00:46:51.780Z,69.53
2023-02-23T00:49:20.433Z,69.40
2023-02-23T00:51:47.995Z,68.70
2023-02-23T00:54:16.207Z,70.97
2023-02-23T00:56:42.992Z,73.60
2023-02-23T00:59:10.197Z,73.57
2023-02-23T01:01:38.409Z,68.57
2023-02-23T01:04:05.291Z,69.05
2023-02-23T01:06:32.320Z,71.05
2023-02-23T01:08:58.909Z,69.53
2023-02-23T01:11:30.901Z,68.13
2023-02-23T01:13:59.369Z,69.00
2023-02-23T01:16:29.426Z,67.32
2023-02-23T01:18:58.120Z,68.43
2023-02-23T01:21:25.848Z,70.88
2023-02-23T01:23:53.323Z,66.15
2023-02-23T01:26:26.081Z,71.97
2023-02-23T01:28:56.893Z,73.00
2023-02-23T01:31:25.492Z,76.50
2023-02-23T01:33:57.003Z,78.90
2023-02-23T01:36:25.422Z,76.88
2023-02-23T01:38:56.315Z,78.28
2023-02-23T01:41:23.964Z,80.43
2023-02-23T01:44:13.308Z,75.88
2023-02-23T01:49:15.295Z,75.78
2023-02-23T01:51:58.693Z,76.68
2023-02-23T01:54:31.001Z,80.20
2023-02-23T01:57:01.758Z,77.85
2023-02-23T01:59:34.631Z,74.78
2023-02-23T02:02:04.933Z,82.93
2023-02-23T02:04:43.994Z,83.40
2023-02-23T02:12:26.429Z,80.03
2023-02-23T02:15:19.920Z,85.90
2023-02-23T02:18:38.052Z,80.82
2023-02-23T02:21:23.388Z,81.80
2023-02-23T02:24:02.282Z,81.45
2023-02-23T02:27:19.137Z,85.18
2023-02-23T02:30:32.081Z,83.65
2023-02-23T02:33:40.354Z,84.95
2023-02-23T02:36:25.107Z,85.45
2023-02-23T02:38:56.205Z,80.35
2023-02-23T02:41:37.033Z,86.97
2023-02-23T02:44:18.205Z,80.93
2023-02-23T02:46:49.664Z,86.55
2023-02-23T02:49:28.971Z,85.07
2023-02-23T02:52:05.430Z,83.28
2023-02-23T02:54:39.321Z,87.13
2023-02-23T02:57:06.942Z,85.65
2023-02-23T03:00:02.520Z,90.72
2023-02-23T03:02:50.190Z,97.18
2023-02-23T03:05:38.453Z,92.13
2023-02-23T03:08:47.092Z,92.88
2023-02-23T03:11:34.401Z,95.13
2023-02-23T03:14:50.484Z,93.72
2023-02-23T03:18:05.162Z,89.03
2023-02-23T03:20:53.149Z,93.97
2023-02-23T03:23:39.629Z,95.22
2023-02-23T03:26:40.134Z,91.45
2023-02-23T03:29:37.654Z,91.05
2023-02-23T03:32:32.428Z,99.72
2023-02-23T03:35:27.729Z,100.70
2023-02-23T03:38:24.071Z,96.07
2023-02-23T03:41:10.252Z,94.45
2023-02-23T03:44:03.581Z,94.55
2023-02-23T03:46:50.305Z,96.95
2023-02-23T03:49:39.032Z,96.50
2023-02-23T03:52:36.761Z,101.78
2023-02-23T03:55:28.425Z,97.45
2023-02-23T03:58:20.343Z,96.35
2023-02-23T04:01:08.797Z,99.68
2023-02-23T04:03:58.093Z,100.82
2023-02-23T04:09:31.044Z,101.63
2023-02-23T04:12:39.244Z,102.60
2023-02-23T04:15:20.201Z,101.55
2023-02-23T04:17:48.237Z,97.85
2023-02-23T04:20:14.951Z,97.35
2023-02-23T04:22:41.484Z,94.63
2023-02-23T04:25:08.923Z,92.90
2023-02-23T04:27:36.323Z,95.22
2023-02-23T04:30:03.695Z,93.43
2023-02-23T04:32:30.845Z,98.35
2023-02-23T04:34:57.418Z,94.60
2023-02-23T04:37:23.900Z,93.25
2023-02-23T04:39:50.448Z,96.65
2023-02-23T04:42:17.630Z,94.43
2023-02-23T04:44:44.550Z,97.50
2023-02-23T04:47:11.806Z,102.00
2023-02-23T04:49:38.482Z,99.88
2023-02-23T04:52:05.275Z,104.22
2023-02-23T04:54:31.789Z,91.57
2023-02-23T04:56:58.428Z,103.72
2023-02-23T04:59:24.967Z,99.22
2023-02-23T05:01:51.635Z,96.13
2023-02-23T05:04:18.082Z,93.32
2023-02-23T05:06:44.547Z,98.60
2023-02-23T05:09:11.015Z,93.30
2023-02-23T05:11:38.094Z,90.30
2023-02-23T05:14:04.803Z,92.50
2023-02-23T05:16:31.364Z,96.47
2023-02-23T05:18:58.229Z,93.72
2023-02-23T05:21:24.957Z,89.15
2023-02-23T05:23:51.501Z,88.18
2023-02-23T05:26:18.748Z,83.78
2023-02-23T05:28:45.384Z,89.10
2023-02-23T05:31:12.279Z,88.53
2023-02-23T05:33:45.643Z,87.47
2023-02-23T05:36:15.176Z,89.95
2023-02-23T05:41:10.225Z,90.68
2023-02-23T05:43:36.864Z,89.80
2023-02-23T05:46:30.072Z,87.88
2023-02-23T05:48:59.724Z,92.53
2023-02-23T05:51:27.612Z,92.22
2023-02-23T05:53:54.370Z,92.82
2023-02-23T05:56:21.344Z,93.00
2023-02-23T05:58:56.268Z,96.30
2023-02-23T06:01:22.983Z,90.45
2023-02-23T06:03:49.665Z,101.57
2023-02-23T06:06:17.500Z,103.68
2023-02-23T06:08:44.454Z,97.15
2023-02-23T06:11:11.592Z,99.03
2023-02-23T06:13:38.125Z,98.35
2023-02-23T06:16:05.142Z,99.10
2023-02-23T06:18:31.735Z,98.63
2023-02-23T06:21:03.833Z,98.78
2023-02-23T06:23:31.550Z,95.43
2023-02-23T06:25:59.719Z,94.28
2023-02-23T06:28:27.266Z,99.25
2023-02-23T06:30:54.874Z,90.75
2023-02-23T06:33:22.630Z,93.75
2023-02-23T06:35:49.359Z,91.25
2023-02-23T06:38:16.134Z,91.90
2023-02-23T06:40:43.196Z,87.38
2023-02-23T06:43:09.850Z,91.65
2023-02-23T06:45:36.552Z,93.68
2023-02-23T06:48:03.076Z,87.38
2023-02-23T06:50:29.589Z,93.63
2023-02-23T06:52:57.517Z,90.18
2023-02-23T06:55:24.308Z,91.78
2023-02-23T06:57:51.831Z,83.47
2023-02-23T07:00:18.819Z,83.30
2023-02-23T07:02:45.767Z,85.50
2023-02-23T07:05:12.323Z,84.20
2023-02-23T07:07:38.852Z,80.20
2023-02-23T07:10:06.718Z,77.57
2023-02-23T07:12:33.323Z,79.47
2023-02-23T07:14:59.802Z,75.53
2023-02-23T07:17:26.277Z,83.45
2023-02-23T07:19:52.769Z,69.70
2023-02-23T07:22:19.372Z,74.88
2023-02-23T07:24:46.259Z,74.38
2023-02-23T07:27:12.765Z,78.68
2023-02-23T07:29:39.248Z,77.25
2023-02-23T07:32:06.103Z,74.00
2023-02-23T07:34:32.932Z,70.15
2023-02-23T07:36:59.489Z,78.13
2023-02-23T07:39:26.019Z,73.45
2023-02-23T07:41:52.510Z,76.88
2023-02-23T07:44:19.456Z,73.68
2023-02-23T07:46:46.428Z,77.43
2023-02-23T07:49:13.040Z,78.65
2023-02-23T07:51:40.068Z,76.40
2023-02-23T07:54:06.776Z,82.90
2023-02-23T07:56:33.567Z,75.85
2023-02-23T07:59:00.113Z,73.82
2023-02-23T08:01:26.634Z,73.25
2023-02-23T08:03:53.245Z,77.70
2023-02-23T08:06:20.213Z,76.13
2023-02-23T08:08:47.254Z,73.57
2023-02-23T08:11:13.834Z,74.93
2023-02-23T08:13:40.290Z,72.93
2023-02-23T08:16:07.272Z,73.68
2023-02-23T08:18:33.806Z,73.80
2023-02-23T08:21:01.683Z,76.10
2023-02-23T08:23:33.402Z,73.72
2023-02-23T08:26:01.296Z,73.75
2023-02-23T08:28:28.802Z,72.43
2023-02-23T08:30:55.420Z,77.80
2023-02-23T08:33:22.564Z,78.10
2023-02-23T08:35:49.097Z,71.57
2023-02-23T08:38:16.398Z,75.35
2023-02-23T08:40:43.274Z,70.78
2023-02-23T08:43:09.916Z,77.10
2023-02-23T08:45:38.658Z,76.00
2023-02-23T08:48:06.722Z,71.28
2023-02-23T08:50:33.184Z,70.47
2023-02-23T08:52:59.643Z,77.65
2023-02-23T08:55:26.530Z,74.93
2023-02-23T08:57:53.037Z,76.35
2023-02-23T09:00:20.069Z,75.65
2023-02-23T09:02:49.587Z,73.57
2023-02-23T09:07:45.027Z,77.45
2023-02-23T09:10:17.038Z,76.05
2023-02-23T09:12:43.568Z,70.18
2023-02-23T09:15:10.442Z,71.72
2023-02-23T09:17:37.709Z,69.45
2023-02-23T09:20:05.621Z,71.30
2023-02-23T09:22:32.471Z,68.95
2023-02-23T09:24:58.925Z,71.45
2023-02-23T09:27:25.471Z,69.63
2023-02-23T09:29:51.953Z,61.60
2023-02-23T09:32:18.577Z,63.00
2023-02-23T09:34:45.108Z,62.22
2023-02-23T09:37:11.587Z,62.95
2023-02-23T09:39:39.182Z,66.75
2023-02-23T09:42:14.989Z,58.83
2023-02-23T09:44:54.904Z,63.38
2023-02-23T09:47:33.612Z,58.42
2023-02-23T09:50:05.997Z,62.13
2023-02-23T09:52:40.928Z,66.80
2023-02-23T09:55:11.323Z,63.08
2023-02-23T09:57:40.238Z,67.53
2023-02-23T10:00:17.956Z,69.63
2023-02-23T10:03:16.880Z,74.78
2023-02-23T10:05:54.585Z,70.78
2023-02-23T10:08:51.854Z,76.95
2023-02-23T10:11:26.002Z,72.20
2023-02-23T10:14:07.321Z,74.32
2023-02-23T10:16:45.480Z,74.38
2023-02-23T10:19:29.267Z,64.85
2023-02-23T10:22:06.489Z,61.88
2023-02-23T10:24:56.785Z,67.43
2023-02-23T10:27:30.421Z,61.05
2023-02-23T10:30:00.598Z,60.63
2023-02-23T10:32:40.923Z,62.80
2023-02-23T10:35:13.457Z,60.38
2023-02-23T10:37:40.097Z,57.45
2023-02-23T10:40:08.166Z,63.17
2023-02-23T10:42:34.748Z,58.15
2023-02-23T10:45:01.252Z,64.68
2023-02-23T10:47:32.436Z,58.92
2023-02-23T10:49:59.261Z,62.25
2023-02-23T10:52:42.928Z,61.00
2023-02-23T10:55:30.936Z,59.55
2023-02-23T10:58:20.805Z,59.22
2023-02-23T11:00:56.473Z,57.22
2023-02-23T11:03:44.311Z,60.53
2023-02-23T11:06:34.063Z,54.63
2023-02-23T11:09:45.014Z,53.92
2023-02-23T11:12:28.508Z,52.72
2023-02-23T11:14:58.940Z,46.28
2023-02-23T11:17:38.721Z,53.65
2023-02-23T11:20:18.691Z,45.80
2023-02-23T11:22:45.859Z,46.97
2023-02-23T11:25:17.689Z,47.20
2023-02-23T11:27:51.741Z,46.60
2023-02-23T11:30:24.436Z,48.15
2023-02-23T11:33:02.457Z,45.88
2023-02-23T11:35:30.869Z,46.63
2023-02-23T11:37:57.638Z,46.72
2023-02-23T11:40:28.568Z,54.50
2023-02-23T11:43:09.809Z,53.75
2023-02-23T11:45:51.981Z,55.38
2023-02-23T11:48:32.969Z,66.20
2023-02-23T11:51:00.519Z,63.28
2023-02-23T11:53:34.951Z,66.25
2023-02-23T11:56:07.823Z,61.15
2023-02-23T11:58:39.333Z,61.38
2023-02-23T12:01:12.179Z,61.85
2023-02-23T12:03:44.739Z,61.70
2023-02-23T12:06:11.456Z,57.75
2023-02-23T12:08:46.422Z,58.20
2023-02-23T12:11:24.640Z,59.47
2023-02-23T12:14:00.826Z,59.50
2023-02-23T12:16:33.331Z,61.67
2023-02-23T12:19:06.619Z,67.70
2023-02-23T12:21:41.887Z,64.82
2023-02-23T12:24:08.438Z,63.65
2023-02-23T12:27:06.267Z,71.45
2023-02-23T12:29:58.773Z,72.20
2023-02-23T12:32:34.799Z,73.30
2023-02-23T12:35:23.052Z,77.65
2023-02-23T12:38:00.327Z,75.65
2023-02-23T12:40:30.251Z,69.50
2023-02-23T12:43:15.912Z,72.82
2023-02-23T12:45:52.692Z,72.97
2023-02-23T12:48:41.671Z,72.90
2023-02-23T12:51:43.313Z,72.07
2023-02-23T12:54:12.507Z,69.10
2023-02-23T12:57:04.290Z,74.32
2023-02-23T12:59:55.164Z,74.47
2023-02-23T13:02:34.065Z,73.30
2023-02-23T13:05:16.274Z,73.30
2023-02-23T13:08:07.993Z,73.88
2023-02-23T13:10:51.356Z,76.53
2023-02-23T13:13:38.260Z,74.18
2023-02-23T13:16:29.661Z,78.60
2023-02-23T13:19:11.644Z,67.80
2023-02-23T13:21:47.514Z,69.05
2023-02-23T13:24:27.259Z,67.63
2023-02-23T13:27:02.921Z,71.53
2023-02-23T13:29:39.126Z,67.82
2023-02-23T13:32:12.980Z,69.30
2023-02-23T13:34:44.689Z,70.13
2023-02-23T13:37:15.142Z,67.78
2023-02-23T13:40:08.774Z,67.97
2023-02-23T13:42:45.294Z,68.53
2023-02-23T13:45:39.004Z,71.07
2023-02-23T13:48:13.765Z,67.13
2023-02-23T13:50:56.627Z,69.68
2023-02-23T13:53:42.288Z,70.95
2023-02-23T13:56:17.677Z,70.25
2023-02-23T13:58:51.719Z,70.15
2023-02-23T14:01:23.548Z,66.97
2023-02-23T14:03:57.395Z,70.45
2023-02-23T14:06:27.847Z,69.18
2023-02-23T14:09:21.335Z,69.88
2023-02-23T14:11:53.818Z,62.72
2023-02-23T14:14:32.927Z,56.33
2023-02-23T14:17:09.806Z,55.58
2023-02-23T14:19:56.484Z,54.75
2023-02-23T14:22:23.026Z,51.92
2023-02-23T14:25:28.819Z,57.15
2023-02-23T14:28:00.633Z,58.33
2023-02-23T14:30:29.197Z,53.90
2023-02-23T14:33:13.128Z,45.60
2023-02-23T14:35:44.812Z,50.63
2023-02-23T14:38:24.768Z,50.35
2023-02-23T14:40:53.775Z,48.13
2023-02-23T14:43:35.514Z,43.90
2023-02-23T14:46:05.851Z,50.13
2023-02-23T14:48:36.475Z,49.20
2023-02-23T14:51:25.170Z,43.28
2023-02-23T14:53:53.446Z,48.08
2023-02-23T14:56:22.650Z,51.80
2023-02-23T14:58:52.566Z,45.53
2023-02-23T15:01:32.776Z,42.92
2023-02-23T15:04:12.580Z,47.13
2023-02-23T15:06:42.460Z,54.60
2023-02-23T15:09:19.979Z,46.05
2023-02-23T15:11:49.941Z,46.33
2023-02-23T15:14:27.390Z,49.63
2023-02-23T15:16:56.268Z,42.70
2023-02-23T15:19:34.401Z,46.65
2023-02-23T15:22:02.917Z,46.35
2023-02-23T15:24:41.408Z,46.23
2023-02-23T15:27:17.378Z,47.00
2023-02-23T15:29:43.817Z,46.33
2023-02-23T15:32:16.521Z,44.70
2023-02-23T15:34:43.166Z,50.28
2023-02-23T15:37:15.157Z,46.72
2023-02-23T15:39:53.101Z,43.40
2023-02-23T15:42:25.290Z,39.92
2023-02-23T15:45:11.683Z,40.65
2023-02-23T15:47:38.235Z,42.40
2023-02-23T15:50:14.270Z,49.80
2023-02-23T15:52:55.137Z,44.88
2023-02-23T15:55:28.122Z,44.55
2023-02-23T15:57:59.063Z,47.17
2023-02-23T16:00:33.010Z,45.00
2023-02-23T16:03:02.662Z,42.38
2023-02-23T16:05:41.818Z,41.85
2023-02-23T16:08:22.978Z,43.25
2023-02-23T16:10:57.435Z,43.00
2023-02-23T16:13:24.195Z,41.88
2023-02-23T16:15:54.022Z,44.97
2023-02-23T16:18:27.527Z,45.10
2023-02-23T16:20:58.908Z,45.50
2023-02-23T16:23:34.472Z,45.33
2023-02-23T16:26:30.813Z,47.97
2023-02-23T16:29:00.272Z,50.30
2023-02-23T16:34:21.263Z,53.17
2023-02-23T16:36:55.470Z,51.17
2023-02-23T16:39:25.351Z,48.38
2023-02-23T16:41:52.006Z,54.50
2023-02-23T16:44:21.682Z,51.63
2023-02-23T16:47:01.783Z,50.25
2023-02-23T16:49:32.487Z,49.80
2023-02-23T16:51:59.835Z,51.42
2023-02-23T16:54:26.529Z,49.67
2023-02-23T16:56:55.320Z,54.10
2023-02-23T16:59:23.902Z,51.97
2023-02-23T17:01:50.778Z,49.20
2023-02-23T17:04:19.259Z,51.25
2023-02-23T17:06:48.301Z,57.58
2023-02-23T17:09:14.711Z,56.13
2023-02-23T17:11:41.454Z,55.78
2023-02-23T17:14:07.910Z,52.58
2023-02-23T17:16:34.424Z,55.03
2023-02-23T17:19:01.836Z,52.85
2023-02-23T17:21:28.383Z,54.25
2023-02-23T17:24:02.460Z,48.45
2023-02-23T17:26:29.051Z,50.10
2023-02-23T17:28:55.566Z,49.47
2023-02-23T17:31:24.856Z,51.17
2023-02-23T17:33:53.686Z,46.80
2023-02-23T17:36:20.256Z,43.20
2023-02-23T17:38:46.965Z,45.75
2023-02-23T17:41:16.730Z,48.35
2023-02-23T17:43:43.543Z,47.15
2023-02-23T17:46:10.302Z,50.88
2023-02-23T17:48:36.870Z,47.70
2023-02-23T17:51:08.901Z,46.35
2023-02-23T17:53:36.052Z,49.33
2023-02-23T17:56:02.505Z,47.28
2023-02-23T17:58:30.089Z,41.08
2023-02-23T18:00:58.705Z,43.42
2023-02-23T18:03:31.770Z,45.38
2023-02-23T18:06:06.540Z,45.35
2023-02-23T18:08:33.650Z,45.90
2023-02-23T18:11:00.392Z,45.33
2023-02-23T18:13:29.069Z,41.00
2023-02-23T18:15:59.489Z,45.63
2023-02-23T18:18:26.245Z,43.33
2023-02-23T18:20:58.007Z,44.63
2023-02-23T18:23:28.607Z,42.85
2023-02-23T18:25:55.023Z,43.10
2023-02-23T18:28:21.507Z,49.15
2023-02-23T18:30:48.017Z,47.95
2023-02-23T18:33:14.778Z,39.33
2023-02-23T18:35:44.973Z,46.85
2023-02-23T18:38:14.018Z,45.78
2023-02-23T18:40:41.043Z,46.65
2023-02-23T18:43:08.692Z,49.25
2023-02-23T18:45:35.224Z,46.22
2023-02-23T18:48:01.845Z,46.80
2023-02-23T18:50:28.398Z,50.08
2023-02-23T18:52:56.433Z,48.10
2023-02-23T18:55:23.762Z,47.33
2023-02-23T18:57:52.544Z,47.88
2023-02-23T19:00:20.108Z,38.53
2023-02-23T19:02:52.139Z,46.40
2023-02-23T19:05:22.377Z,49.03
2023-02-23T19:07:49.149Z,52.65
2023-02-23T19:10:16.286Z,49.35
2023-02-23T19:12:43.444Z,47.10
2023-02-23T19:15:10.560Z,48.42
2023-02-23T19:17:37.058Z,48.67
2023-02-23T19:20:07.924Z,51.25
2023-02-23T19:22:34.925Z,48.17
2023-02-23T19:25:02.194Z,57.42
2023-02-23T19:27:29.698Z,56.83
2023-02-23T19:29:56.952Z,50.10
2023-02-23T19:32:23.955Z,53.53
2023-02-23T19:34:50.908Z,52.58
2023-02-23T19:37:17.903Z,52.25
2023-02-23T19:39:46.338Z,54.38
2023-02-23T19:42:18.088Z,53.03
2023-02-23T19:44:45.707Z,50.58
2023-02-23T19:47:12.372Z,49.35
2023-02-23T19:49:39.040Z,55.28
2023-02-23T19:52:05.783Z,47.25
2023-02-23T19:54:34.032Z,51.22
2023-02-23T19:57:00.951Z,55.97
2023-02-23T19:59:28.658Z,53.30
2023-02-23T20:01:55.460Z,53.60
2023-02-23T20:04:22.630Z,53.13
2023-02-23T20:06:49.323Z,49.60
2023-02-23T20:09:16.647Z,53.05
2023-02-23T20:11:43.430Z,51.42
2023-02-23T20:14:10.800Z,56.95
2023-02-23T20:16:37.516Z,53.85
2023-02-23T20:19:06.417Z,51.35
2023-02-23T20:21:33.742Z,48.47
2023-02-23T20:24:01.592Z,49.47
2023-02-23T20:26:39.267Z,47.17
2023-02-23T20:29:10.551Z,53.50
2023-02-23T20:31:41.570Z,48.67
2023-02-23T20:34:10.940Z,51.05
2023-02-23T20:39:04.791Z,45.50
2023-02-23T20:41:32.000Z,46.10
2023-02-23T20:44:00.846Z,45.70
2023-02-23T20:46:30.646Z,41.92
2023-02-23T20:48:59.151Z,44.50
2023-02-23T20:51:26.102Z,45.40
2023-02-23T20:53:52.856Z,44.33
2023-02-23T20:56:22.025Z,48.78
2023-02-23T20:58:48.724Z,43.88
2023-02-23T21:01:20.376Z,46.17
2023-02-23T21:03:47.438Z,48.70
2023-02-23T21:06:15.945Z,47.08
2023-02-23T21:08:42.637Z,47.22
2023-02-23T21:11:09.368Z,45.33
2023-02-23T21:13:36.395Z,45.80
2023-02-23T21:16:03.422Z,49.55
2023-02-23T21:18:30.942Z,46.25
2023-02-23T21:21:06.496Z,48.47
2023-02-23T21:23:33.222Z,49.70
2023-02-23T21:26:07.069Z,51.95
2023-02-23T21:28:34.186Z,44.67
2023-02-23T21:31:01.048Z,45.35
2023-02-23T21:33:27.959Z,44.08
2023-02-23T21:35:58.595Z,43.65
2023-02-23T21:38:26.315Z,48.63
2023-02-23T21:40:53.096Z,49.95
2023-02-23T21:43:19.792Z,46.28
2023-02-23T21:45:46.674Z,45.33
2023-02-23T21:48:13.813Z,47.38
2023-02-23T21:50:42.100Z,45.05
2023-02-23T21:53:09.610Z,52.38
2023-02-23T21:55:39.998Z,41.90
2023-02-23T21:58:07.132Z,49.85
2023-02-23T22:00:35.758Z,43.13
2023-02-23T22:03:03.096Z,46.47
2023-02-23T22:05:29.923Z,39.85
2023-02-23T22:07:56.579Z,40.70
2023-02-23T22:10:24.075Z,47.38
2023-02-23T22:12:55.683Z,44.58
2023-02-23T22:15:27.463Z,43.08
2023-02-23T22:17:55.585Z,45.03
2023-02-23T22:20:22.451Z,41.42
2023-02-23T22:22:50.335Z,41.95
2023-02-23T22:25:19.662Z,41.90
2023-02-23T22:27:46.360Z,43.85
2023-02-23T22:30:14.632Z,44.33
2023-02-23T22:32:42.551Z,37.55
2023-02-23T22:35:10.074Z,36.97
2023-02-23T22:37:36.937Z,38.13
2023-02-23T22:40:15.253Z,40.38
2023-02-23T22:42:47.889Z,43.03
2023-02-23T22:45:15.925Z,45.85
2023-02-23T22:47:42.677Z,38.55
2023-02-23T22:50:11.824Z,40.03
2023-02-23T22:52:38.663Z,38.20
2023-02-23T22:55:05.603Z,37.13
2023-02-23T22:57:32.274Z,32.92
2023-02-23T23:00:10.856Z,37.80
2023-02-23T23:02:37.846Z,36.78
2023-02-23T23:05:05.050Z,38.22
2023-02-23T23:07:32.391Z,36.72
2023-02-23T23:10:02.271Z,35.40
2023-02-23T23:12:28.902Z,37.97
2023-02-23T23:15:00.378Z,39.13
2023-02-23T23:17:28.934Z,37.17
2023-02-23T23:19:56.576Z,38.67
2023-02-23T23:22:25.425Z,41.72
2023-02-23T23:24:52.600Z,36.00
2023-02-23T23:27:20.235Z,35.78
2023-02-23T23:29:48.122Z,39.17
2023-02-23T23:32:17.235Z,33.63
2023-02-23T23:34:47.228Z,40.30
2023-02-23T23:37:15.927Z,41.67
2023-02-23T23:39:42.699Z,36.43
2023-02-23T23:42:09.299Z,35.90
2023-02-23T23:44:36.381Z,37.42
2023-02-23T23:47:05.716Z,37.45
2023-02-23T23:52:05.788Z,36.22
2023-02-23T23:54:39.074Z,37.55
2023-02-23T23:57:06.527Z,37.33
2023-02-23T23:59:34.829Z,39.15
